Latest Weather Observations for Coolangatta

IDQ60801

Issued at 12:02 pm EST Sunday 2 August 2015 (issued every 30 minutes, with the page automatically refreshed every 10 minutes)

About weather observations | Map of weather stations | Latest weather observations for QLD | Other Formats
Station Details ID: 040717 Name: COOLANGATTA Lat: -28.17 Lon: 153.51 Height: 4.0 m
Data from the previous 72 hours. | See also: Recent months at Coolangatta
Date/Time
EST
Temp
°C
App
Temp
°C
Dew
Point
Rel
Hum
%
Delta-T
°C
Wind Press
QNH
hPa
Press
MSL
hPa
Rain
since 9 am
mm
Dir
 
Spd
km/h
Gust
km/h
Spd
kts
Gust
kts
02/12:00pm 22.2 16.8 12.2 53 5.6 N 32 39 17 21 1020.4 1020.4 0.0
02/11:30am 22.4 17.0 12.1 52 5.8 N 32 37 17 20 1020.9 1020.9 0.0
02/11:00am 22.4 17.6 11.5 50 6.1 NNW 28 37 15 20 1021.6 1021.6 0.0
02/10:30am 21.5 17.2 10.9 51 5.8 NNW 24 37 13 20 1021.8 1021.8 0.0
02/10:00am 21.1 17.1 11.7 55 5.2 NNW 24 33 13 18 1022.2 1022.2 0.0
02/09:30am 20.1 16.7 11.3 57 4.8 NNW 20 28 11 15 1022.4 1022.4 0.0
02/09:00am 19.5 16.9 12.0 62 4.1 NW 17 20 9 11 1022.3 1022.3 0.0
02/08:30am 18.8 16.6 12.1 65 3.7 NNW 15 24 8 13 1022.1 1022.1 0.0
02/08:00am 17.5 15.6 11.8 69 3.1 NNW 13 20 7 11 1022.0 1022.0 0.0
02/07:30am 16.5 13.8 11.6 73 2.7 NNW 17 20 9 11 1022.0 1022.0 0.0
02/07:00am 15.0 13.0 11.6 80 1.8 NNW 13 17 7 9 1021.9 1021.9 0.0
02/06:30am 15.0 13.0 11.4 79 1.9 NNW 13 19 7 10 1021.6 1021.6 0.0
02/06:00am 14.9 12.2 11.7 81 1.7 NNW 17 22 9 12 1021.4 1021.4 0.0
02/05:30am 13.9 11.8 11.1 83 1.5 N 13 17 7 9 1021.2 1021.2 0.0
02/05:00am 14.4 11.9 11.2 81 1.7 N 15 17 8 9 1021.0 1021.0 0.0
02/04:30am 15.0 13.7 11.2 78 2.0 NW 9 13 5 7 1020.9 1020.9 0.0
02/04:00am 15.3 13.7 11.5 78 2.0 NW 11 15 6 8 1020.9 1020.9 0.0
02/03:30am 15.3 14.1 11.5 78 2.0 NW 9 13 5 7 1021.0 1021.0 0.0
02/03:00am 15.3 13.6 11.3 77 2.1 NW 11 15 6 8 1021.2 1021.2 0.0
02/02:30am 15.7 14.0 11.3 75 2.4 NW 11 13 6 7 1021.4 1021.4 0.0
02/02:00am 15.9 14.3 11.5 75 2.4 NNW 11 15 6 8 1021.6 1021.6 0.0
02/01:30am 15.5 13.8 11.1 75 2.3 NW 11 15 6 8 1022.0 1022.0 0.0
02/01:00am 15.4 13.7 11.2 76 2.2 NW 11 13 6 7 1022.2 1022.2 0.0
02/12:30am 15.7 14.4 11.3 75 2.4 NW 9 13 5 7 1022.5 1022.5 0.0
02/12:00am 15.5 13.7 10.9 74 2.4 NW 11 15 6 8 1022.5 1022.5 0.0
 
Date/Time
EST
Temp
°C
App
Temp
°C
Dew
Point
Rel
Hum
%
Delta-T
°C
Wind Press
QNH
hPa
Press
MSL
hPa
Rain
since 9 am
mm
Dir
 
Spd
km/h
Gust
km/h
Spd
kts
Gust
kts
01/11:30pm 15.5 13.4 11.1 75 2.3 NW 13 15 7 8 1022.6 1022.6 0.0
01/11:00pm 15.5 13.7 10.7 73 2.5 NW 11 15 6 8 1022.6 1022.6 0.0
01/10:30pm 15.6 13.8 11.0 74 2.5 NW 11 15 6 8 1022.5 1022.5 0.0
01/10:00pm 17.0 14.5 11.1 68 3.2 NNW 15 20 8 11 1022.4 1022.4 0.0
01/09:30pm 15.7 14.1 11.5 76 2.3 NW 11 15 6 8 1022.7 1022.7 0.0
01/09:00pm 15.9 14.0 11.9 77 2.2 WNW 13 17 7 9 1022.6 1022.6 0.0
01/08:30pm 16.1 14.2 11.9 76 2.3 NW 13 20 7 11 1022.3 1022.3 0.0
01/08:00pm 15.9 13.9 11.5 75 2.4 NW 13 17 7 9 1022.2 1022.2 0.0
01/07:30pm 16.3 14.3 11.5 73 2.6 NW 13 15 7 8 1022.0 1022.0 0.0
01/07:00pm 16.8 15.1 11.3 70 3.0 NW 11 17 6 9 1021.5 1021.5 0.0
01/06:30pm 17.9 16.0 11.9 68 3.3 NNW 13 17 7 9 1021.1 1021.1 0.0
01/06:00pm 18.6 16.0 12.1 66 3.6 NNW 17 24 9 13 1020.7 1020.7 0.0
01/05:30pm 18.9 16.5 12.6 67 3.5 NNW 17 24 9 13 1020.8 1020.8 0.0
01/05:00pm 19.4 16.4 12.7 65 3.8 NNW 20 28 11 15 1020.6 1020.6 0.0
01/04:30pm 20.0 16.1 13.2 65 3.9 N 26 33 14 18 1020.5 1020.5 0.0
01/04:00pm 20.6 16.2 12.8 61 4.4 N 28 37 15 20 1020.4 1020.4 0.0
01/03:30pm 21.3 16.9 13.0 59 4.7 N 28 33 15 18 1020.3 1020.3 0.0
01/03:00pm 21.6 17.8 13.5 60 4.7 N 26 33 14 18 1020.4 1020.4 0.0
01/02:30pm 21.6 17.9 13.8 61 4.5 N 26 35 14 19 1020.4 1020.4 0.0
01/02:00pm 21.4 17.1 13.3 60 4.6 N 28 35 15 19 1020.7 1020.7 0.0
01/01:30pm 21.9 18.7 14.3 62 4.4 N 24 32 13 17 1020.7 1020.7 0.0
01/01:00pm 21.6 18.4 14.3 63 4.3 N 24 32 13 17 1021.1 1021.1 0.0
01/12:30pm 21.4 17.9 13.3 60 4.6 N 24 30 13 16 1021.6 1021.6 0.0
01/12:00pm 21.3 17.8 13.5 61 4.5 N 24 30 13 16 1022.1 1022.1 0.0
01/11:30am 21.2 18.0 13.1 60 4.6 N 22 28 12 15 1022.5 1022.5 0.0
01/11:00am 21.3 18.6 13.0 59 4.7 N 19 24 10 13 1023.0 1023.0 0.0
01/10:30am 21.0 18.6 12.7 59 4.7 N 17 24 9 13 1023.3 1023.3 0.0
01/10:00am 20.7 18.4 11.6 56 5.0 N 15 20 8 11 1023.7 1023.7 0.0
01/09:30am 19.9 18.8 11.9 60 4.4 NNW 9 13 5 7 1023.7 1023.7 0.0
01/09:00am 18.6 19.6 13.2 71 3.0 CALM 0 6 0 3 1023.8 1023.8 0.2
01/08:30am 15.0 14.4 11.6 80 1.8 SW 6 7 3 4 1023.8 1023.8 0.2
01/08:00am 12.9 12.2 11.5 91 0.7 SW 6 7 3 4 1023.6 1023.6 0.2
01/07:30am 11.2 10.7 10.7 97 0.3 SSW 4 6 2 3 1023.1 1023.1 0.2
01/07:00am 9.2 7.8 8.7 97 0.2 SSW 6 7 3 4 1022.8 1022.8 0.2
01/06:30am 8.6 7.4 8.0 96 0.3 SW 4 7 2 4 1022.6 1022.6 0.2
01/06:18am 8.4 6.8 7.8 96 0.3 SSW 6 7 3 4 1022.4 1022.4 0.2
01/06:00am 7.7 6.2 7.0 95 0.3 SSW 4 6 2 3 1022.3 1022.3 0.2
01/05:59am 7.9 6.9 7.3 96 0.3 SSW 2 6 1 3 1022.3 1022.3 0.2
01/05:30am 9.6 8.7 9.1 97 0.2 SSW 4 6 2 3 1022.1 1022.1 0.2
01/05:00am 9.1 8.8 8.5 96 0.3 CALM 0 0 0 0 1022.0 1022.0 0.2
01/04:30am 8.9 7.2 8.3 96 0.3 SW 7 7 4 4 1021.8 1021.8 0.2
01/04:00am 9.0 7.4 8.1 94 0.4 S 6 7 3 4 1021.8 1021.8 0.2
01/03:30am 10.0 8.8 9.4 96 0.3 SSW 6 7 3 4 1021.9 1021.9 0.2
01/03:00am 9.4 7.9 8.6 95 0.4 SW 6 9 3 5 1022.1 1022.1 0.2
01/02:30am 10.0 8.8 9.4 96 0.3 SSW 6 7 3 4 1022.3 1022.3 0.2
01/02:00am 9.6 8.2 8.7 94 0.4 SSW 6 7 3 4 1022.4 1022.4 0.2
01/01:30am 10.6 9.3 9.8 95 0.4 SSW 7 7 4 4 1022.6 1022.6 0.2
01/01:00am 9.7 8.2 8.5 92 0.6 SW 6 7 3 4 1022.7 1022.7 0.2
01/12:30am 10.6 9.3 9.2 91 0.7 SSW 6 7 3 4 1022.7 1022.7 0.2
01/12:00am 10.6 9.4 9.4 92 0.6 SSW 6 6 3 3 1022.8 1022.8 0.2
 
Date/Time
EST
Temp
°C
App
Temp
°C
Dew
Point
Rel
Hum
%
Delta-T
°C
Wind Press
QNH
hPa
Press
MSL
hPa
Rain
since 9 am
mm
Dir
 
Spd
km/h
Gust
km/h
Spd
kts
Gust
kts
31/11:30pm 10.7 9.9 9.5 92 0.6 WSW 4 7 2 4 1022.8 1022.8 0.2
31/11:00pm 10.8 10.3 9.2 90 0.8 SW 2 7 1 4 1022.8 1022.8 0.2
31/10:30pm 11.0 9.8 9.4 90 0.8 WSW 6 9 3 5 1022.9 1022.9 0.2
31/10:00pm 11.2 9.7 9.3 88 0.9 SW 7 11 4 6 1022.8 1022.8 0.2
31/09:30pm 12.0 10.9 10.1 88 1.0 S 6 7 3 4 1022.6 1022.6 0.2
31/09:00pm 12.0 10.8 9.6 85 1.2 SSW 6 7 3 4 1022.4 1022.4 0.2
31/08:30pm 12.5 11.2 9.9 84 1.3 SW 7 9 4 5 1022.1 1022.1 0.2
31/08:00pm 12.8 11.6 10.3 85 1.3 SW 7 11 4 6 1022.0 1022.0 0.2
31/07:30pm 13.0 11.8 10.4 84 1.3 WSW 7 9 4 5 1021.8 1021.8 0.2
31/07:00pm 13.3 11.5 10.7 84 1.4 WSW 11 13 6 7 1021.3 1021.3 0.2
31/06:30pm 13.3 12.2 9.9 80 1.7 WSW 6 7 3 4 1021.0 1021.0 0.2
31/06:00pm 14.5 14.7 10.5 77 2.1 CALM 0 0 0 0 1020.5 1020.5 0.2
31/05:30pm 16.0 14.3 8.5 61 3.8 NNE 7 9 4 5 1020.3 1020.3 0.2
31/05:00pm 19.1 16.6 8.4 50 5.5 NE 11 13 6 7 1020.3 1020.3 0.2
31/04:30pm 20.1 17.4 8.8 48 5.9 ENE 13 17 7 9 1020.3 1020.3 0.2
31/04:00pm 20.7 17.7 9.3 48 6.0 ENE 15 19 8 10 1020.2 1020.2 0.2
31/03:30pm 21.1 18.1 9.4 47 6.2 ENE 15 19 8 10 1020.1 1020.1 0.2
31/03:00pm 21.5 19.0 11.2 52 5.7 NNE 15 19 8 10 1020.0 1020.0 0.2
31/02:30pm 22.3 19.5 10.1 46 6.6 N 15 19 8 10 1020.1 1020.1 0.2
31/02:00pm 21.6 18.1 8.8 44 6.8 N 17 20 9 11 1020.1 1020.1 0.2
31/01:30pm 21.6 17.8 9.2 45 6.6 N 19 20 10 11 1020.2 1020.2 0.2
31/01:00pm 21.5 17.8 10.0 48 6.2 NNE 20 26 11 14 1020.7 1020.7 0.2
31/12:30pm 21.7 18.3 9.3 45 6.6 NNW 17 28 9 15 1021.0 1021.0 0.2
31/12:00pm 21.4 18.3 9.0 45 6.6 NW 15 20 8 11 1021.3 1021.3 0.0
31/11:30am 21.3 18.3 9.2 46 6.4 NW 15 20 8 11 1021.9 1021.9 0.0
31/11:00am 21.0 18.1 9.6 48 6.1 NW 15 24 8 13 1022.5 1022.5 0.0
31/10:30am 20.8 17.4 10.6 52 5.6 WNW 19 26 10 14 1022.8 1022.8 0.0
31/10:00am 19.7 16.0 10.1 54 5.1 NW 20 32 11 17 1022.9 1022.9 0.0
31/09:30am 19.0 15.7 11.6 62 4.1 NNW 20 28 11 15 1023.2 1023.2 0.0
31/09:00am 18.3 15.6 11.8 66 3.6 NNW 17 26 9 14 1023.3 1023.3 0.0
31/08:30am 17.5 14.7 12.6 73 2.7 WNW 19 30 10 16 1023.3 1023.3 0.0
31/08:00am 16.6 13.7 12.4 76 2.3 WNW 19 28 10 15 1023.2 1023.2 0.0
31/07:30am 15.6 13.4 12.0 79 2.0 WNW 15 20 8 11 1022.8 1022.8 0.0
31/07:00am 14.5 12.6 11.8 84 1.4 WNW 13 17 7 9 1022.6 1022.6 0.0
31/06:30am 13.7 12.1 11.7 88 1.1 WNW 11 15 6 8 1022.5 1022.5 0.0
31/06:00am 13.5 11.5 11.4 87 1.1 NW 13 17 7 9 1022.0 1022.0 0.0
31/05:30am 12.9 11.1 10.8 87 1.1 NW 11 13 6 7 1021.5 1021.5 0.0
31/05:00am 13.9 11.9 11.6 86 1.2 NW 13 17 7 9 1021.4 1021.4 0.0
31/04:30am 13.4 11.4 11.6 89 1.0 NW 13 17 7 9 1021.4 1021.4 0.0
31/04:00am 13.4 11.9 12.0 91 0.7 WNW 11 15 6 8 1022.0 1022.0 0.0
31/03:30am 11.4 10.1 11.1 98 0.2 WNW 9 13 5 7 1022.3 1022.3 0.0
31/03:04am 10.3 8.6 9.7 96 0.3 W 9 9 5 5 1022.5 1022.5 0.0
31/03:00am 10.1 8.3 9.5 96 0.3 WNW 9 11 5 6 1022.4 1022.4 0.0
31/02:45am 10.8 9.8 10.3 97 0.3 WSW 6 7 3 4 1022.4 1022.4 0.0
31/02:30am 11.6 10.6 11.1 97 0.3 WSW 7 9 4 5 1022.8 1022.8 0.0
31/02:00am 11.4 10.4 10.9 97 0.3 WSW 7 9 4 5 1022.9 1022.9 0.0
31/01:30am 11.3 10.2 10.8 97 0.3 WSW 7 9 4 5 1022.9 1022.9 0.0
31/01:00am 11.4 10.4 10.9 97 0.3 WSW 7 9 4 5 1023.1 1023.1 0.0
31/12:30am 11.4 10.0 10.8 96 0.3 WSW 9 9 5 5 1023.5 1023.5 0.0
31/12:00am 11.3 10.2 10.5 95 0.4 WSW 7 9 4 5 1023.7 1023.7 0.0
 
Date/Time
EST
Temp
°C
App
Temp
°C
Dew
Point
Rel
Hum
%
Delta-T
°C
Wind Press
QNH
hPa
Press
MSL
hPa
Rain
since 9 am
mm
Dir
 
Spd
km/h
Gust
km/h
Spd
kts
Gust
kts
30/11:30pm 11.5 10.6 10.7 95 0.4 WSW 6 7 3 4 1023.8 1023.8 0.0
30/11:00pm 12.3 12.8 11.5 95 0.4 CALM 0 6 0 3 1024.1 1024.1 0.0
30/10:30pm 12.8 11.0 12.2 96 0.3 WSW 13 15 7 8 1024.4 1024.4 0.0
30/10:00pm 12.5 11.7 11.7 95 0.4 WSW 7 9 4 5 1024.3 1024.3 0.0
30/09:30pm 12.8 11.3 12.0 95 0.4 WSW 11 13 6 7 1024.5 1024.5 0.0
30/09:00pm 12.8 12.0 11.7 93 0.6 WSW 7 9 4 5 1024.4 1024.4 0.0
30/08:30pm 13.3 12.8 12.0 92 0.7 WSW 6 7 3 4 1024.6 1024.6 0.0
30/08:00pm 14.0 13.1 12.7 92 0.7 WSW 9 13 5 7 1024.7 1024.7 0.0
30/07:30pm 13.8 12.9 12.5 92 0.7 WSW 9 11 5 6 1024.7 1024.7 0.0
30/07:00pm 13.9 13.2 12.1 89 1.0 W 7 9 4 5 1024.5 1024.5 0.0
30/06:30pm 15.2 14.5 12.1 82 1.7 N 7 13 4 7 1024.8 1024.8 0.0
30/06:00pm 16.8 15.8 12.3 75 2.5 NNE 9 15 5 8 1024.5 1024.5 0.0
30/05:30pm 17.6 16.7 12.7 73 2.7 NNE 9 11 5 6 1024.6 1024.6 0.0
30/05:00pm 18.1 16.4 12.5 70 3.1 NE 13 15 7 8 1024.2 1024.2 0.0
30/04:30pm 18.9 17.3 12.9 68 3.4 NE 13 19 7 10 1023.9 1023.9 0.0
30/04:00pm 19.3 17.7 12.8 66 3.6 NE 13 17 7 9 1023.8 1023.8 0.0
30/03:30pm 19.5 18.0 13.2 67 3.6 ENE 13 19 7 10 1023.9 1023.9 0.0
30/03:00pm 19.5 17.5 12.7 65 3.8 ENE 15 19 8 10 1024.0 1024.0 0.0
30/02:30pm 19.8 17.4 12.6 63 4.0 ENE 17 20 9 11 1024.5 1024.5 0.0
30/02:10pm 19.7 16.9 12.5 63 4.0 ENE 19 22 10 12 1024.6 1024.6 0.0
30/02:00pm 19.6 16.6 12.1 62 4.2 ENE 19 22 10 12 1024.8 1024.8 0.0
30/01:51pm 20.0 17.1 12.3 61 4.3 ENE 19 24 10 13 1024.8 1024.8 0.0
30/01:30pm 20.2 17.7 12.4 61 4.4 ENE 17 20 9 11 1025.1 1025.1 0.0
30/01:00pm 20.1 17.2 11.1 56 4.9 ENE 17 22 9 12 1025.3 1025.3 0.0
30/12:30pm 20.7 18.7 11.6 56 5.0 NE 13 17 7 9 1025.7 1025.7 0.0

Other Formats:

Comma delimited format used in spreadsheet applications
http://www.bom.gov.au/fwo/IDQ60801/IDQ60801.94592.axf

JavaScript Object Notation format (JSON) in row-major order
http://www.bom.gov.au/fwo/IDQ60801/IDQ60801.94592.json